Time;durP1;ratioP1;P1;durP2;ratioP2;P2;SDS_P1;SDS_P2;PMS_P1;PMS_P2;Temp;Humidity;BMP_temperature;BMP_pressure;BME280_temperature;BME280_humidity;BME280_pressure;Samples;Min_cycle;Max_cycle;Signal;HPM_P1;HPM_P2
2023/12/01 00:02:15;;;;;;;4.40;3.20;;;;;;;-7.37;71.13;97097.16;6227978;28;20048;-74
2023/12/01 00:05:21;;;;;;;3.72;3.30;;;;;;;-7.28;70.39;97099.78;6227683;28;20128;-75
2023/12/01 00:08:25;;;;;;;5.15;3.08;;;;;;;-7.26;69.83;97095.53;6245494;28;20049;-74
2023/12/01 00:11:30;;;;;;;5.00;3.10;;;;;;;-7.34;70.69;97097.19;6245476;28;20458;-74
2023/12/01 00:14:34;;;;;;;5.18;3.25;;;;;;;-7.39;70.56;97097.97;6245181;28;20132;-75
2023/12/01 00:17:38;;;;;;;4.63;3.05;;;;;;;-7.39;70.75;97080.94;6245315;28;20038;-75
2023/12/01 00:20:43;;;;;;;4.10;3.10;;;;;;;-7.55;70.64;97087.63;6245177;28;20037;-74
2023/12/01 00:23:48;;;;;;;4.47;3.40;;;;;;;-7.46;70.80;97092.81;6244737;28;20069;-75
2023/12/01 00:26:53;;;;;;;5.07;3.40;;;;;;;-7.55;70.05;97091.88;6244843;28;20045;-75
2023/12/01 00:29:58;;;;;;;4.82;3.42;;;;;;;-7.67;70.79;97087.53;6245020;28;20428;-73
2023/12/01 00:33:04;;;;;;;4.88;3.50;;;;;;;-7.68;70.14;97081.53;6244932;28;20037;-74
2023/12/01 00:36:08;;;;;;;5.38;3.65;;;;;;;-7.83;70.71;97073.72;6244882;28;20051;-75
2023/12/01 00:39:12;;;;;;;4.87;3.57;;;;;;;-7.81;70.87;97064.38;6211038;28;20049;-75
2023/12/01 00:42:17;;;;;;;4.65;3.13;;;;;;;-7.74;69.96;97078.91;6244737;28;20037;-76
2023/12/01 00:45:22;;;;;;;3.45;2.97;;;;;;;-7.95;70.14;97060.84;6244874;28;20130;-75
2023/12/01 00:48:27;;;;;;;5.05;3.55;;;;;;;-8.05;71.07;97054.75;6244672;28;20041;-76
2023/12/01 00:51:31;;;;;;;5.00;3.22;;;;;;;-8.18;71.02;97053.78;6244527;28;20422;-77
2023/12/01 00:54:36;;;;;;;6.28;3.50;;;;;;;-8.19;70.92;97081.84;6227076;28;20399;-75
2023/12/01 00:57:40;;;;;;;4.93;3.15;;;;;;;-8.20;71.49;97083.53;6244204;28;20050;-76
2023/12/01 01:00:44;;;;;;;3.90;2.88;;;;;;;-8.16;71.04;97082.72;6244573;28;20134;-75
2023/12/01 01:03:49;;;;;;;7.82;4.05;;;;;;;-8.27;71.22;97091.94;6244430;28;20430;-75
2023/12/01 01:06:53;;;;;;;3.08;2.40;;;;;;;-8.37;71.40;97090.13;6244254;28;20042;-75
2023/12/01 01:09:59;;;;;;;5.80;3.97;;;;;;;-8.46;71.20;97088.34;6244305;28;20057;-75
2023/12/01 01:13:03;;;;;;;4.40;3.95;;;;;;;-8.55;71.93;97097.56;6244168;28;20132;-76
2023/12/01 01:16:08;;;;;;;5.60;3.60;;;;;;;-8.56;71.04;97073.75;6244306;28;20055;-75
2023/12/01 01:19:13;;;;;;;5.32;3.67;;;;;;;-8.52;71.10;97077.19;6244214;28;20091;-76
2023/12/01 01:22:18;;;;;;;7.07;3.85;;;;;;;-8.59;71.62;97071.16;6244500;28;20060;-75
2023/12/01 01:25:22;;;;;;;5.45;3.97;;;;;;;-8.61;71.48;97081.34;6244153;28;20084;-74
2023/12/01 01:28:26;;;;;;;6.07;4.47;;;;;;;-8.65;71.67;97071.94;6243973;28;20049;-75
2023/12/01 01:31:31;;;;;;;5.57;3.45;;;;;;;-8.67;71.85;97063.41;6244152;28;20506;-75
2023/12/01 01:34:38;;;;;;;5.30;4.10;;;;;;;-8.60;72.17;97060.13;6245718;28;20052;-76
2023/12/01 01:37:44;;;;;;;5.75;3.63;;;;;;;-8.49;71.46;97070.47;6248937;28;20049;-75
2023/12/01 01:40:49;;;;;;;5.43;3.70;;;;;;;-8.46;71.42;97057.75;6248884;28;20050;-75
2023/12/01 01:43:53;;;;;;;3.58;3.17;;;;;;;-8.46;71.25;97067.09;6248435;28;20119;-75
2023/12/01 01:46:57;;;;;;;5.70;3.50;;;;;;;-8.37;71.41;97068.03;6248596;28;20052;-75
2023/12/01 01:50:06;;;;;;;4.47;3.10;;;;;;;-8.40;70.57;97056.97;6248680;28;20103;-74
2023/12/01 01:53:08;;;;;;;4.43;3.15;;;;;;;-8.34;70.50;97057.00;6247866;28;20045;-75
2023/12/01 01:56:14;;;;;;;5.75;3.70;;;;;;;-8.35;70.57;97060.38;6230330;28;20563;-76
2023/12/01 01:59:19;;;;;;;4.70;3.15;;;;;;;-8.35;70.18;97039.94;6247779;28;20041;-76
2023/12/01 02:02:26;;;;;;;6.07;3.45;;;;;;;-8.36;70.47;97059.50;6248227;28;20033;-75
2023/12/01 02:05:33;;;;;;;5.32;3.70;;;;;;;-8.47;70.36;97055.16;6247568;28;20502;-75
2023/12/01 02:08:39;;;;;;;6.30;4.30;;;;;;;-8.50;69.80;97055.97;6248243;28;20246;-75
2023/12/01 02:11:43;;;;;;;5.97;3.53;;;;;;;-8.49;69.99;97059.38;6247916;28;20045;-74
2023/12/01 02:14:47;;;;;;;6.60;4.00;;;;;;;-8.67;70.40;97063.41;6231023;28;20642;-74
2023/12/01 02:17:52;;;;;;;4.40;2.75;;;;;;;-8.72;69.93;97075.22;6247971;28;20046;-74
2023/12/01 02:21:13;;;;;;;6.40;4.25;;;;;;;-8.49;69.57;97061.91;6230098;28;20053;-75
2023/12/01 02:24:15;;;;;;;4.90;3.83;;;;;;;-8.36;69.22;97064.63;6229554;28;20102;-75
2023/12/01 02:27:19;;;;;;;;;;;;;;;-8.27;68.19;97079.19;6230639;28;20041;-74
2023/12/01 02:30:25;;;;;;;7.17;3.63;;;;;;;-8.25;67.72;97082.63;6247680;28;19921;-75
2023/12/01 02:33:32;;;;;;;5.25;3.53;;;;;;;-8.28;67.68;97074.06;6247320;28;20444;-76
2023/12/01 02:36:36;;;;;;;4.32;3.20;;;;;;;-8.30;67.50;97074.03;6246999;28;20041;-75
2023/12/01 02:39:44;;;;;;;6.78;3.75;;;;;;;-8.37;68.05;97067.16;6247146;28;20407;-76
2023/12/01 02:42:49;;;;;;;6.72;3.90;;;;;;;-8.42;68.12;97053.53;6246437;28;20053;-75
2023/12/01 02:45:55;;;;;;;4.15;2.92;;;;;;;-8.30;68.55;97063.84;6246248;28;20106;-75
2023/12/01 02:49:00;;;;;;;5.03;3.15;;;;;;;-8.25;68.15;97076.66;6246001;28;20064;-75
2023/12/01 02:52:07;;;;;;;5.15;3.55;;;;;;;-8.22;69.18;97075.00;6238983;28;20048;-75
2023/12/01 02:55:08;;;;;;;6.00;4.03;;;;;;;-8.10;68.81;97061.50;6254259;28;20478;-76
2023/12/01 02:58:13;;;;;;;4.60;3.30;;;;;;;-7.98;68.57;97069.31;6271493;28;20125;-76
2023/12/01 03:01:20;;;;;;;4.35;2.42;;;;;;;-7.80;68.38;97070.34;6271343;28;20052;-76
2023/12/01 03:04:22;;;;;;;3.63;2.70;;;;;;;-7.70;68.43;97067.91;6270935;28;20051;-76
2023/12/01 03:07:24;;;;;;;3.30;2.25;;;;;;;-7.50;67.32;97074.88;6271233;28;20041;-75
2023/12/01 03:10:28;;;;;;;4.53;3.03;;;;;;;-7.39;66.23;97057.09;6271442;28;20494;-75
2023/12/01 03:13:31;;;;;;;4.55;3.40;;;;;;;-7.58;66.39;97036.50;6268820;28;20396;-76
2023/12/01 03:16:35;;;;;;;4.85;3.03;;;;;;;-7.50;66.60;97064.66;6270057;28;20052;-73
2023/12/01 03:19:39;;;;;;;6.35;4.30;;;;;;;-7.42;66.35;97075.81;6271194;28;20064;-75
2023/12/01 03:22:43;;;;;;;2.97;2.65;;;;;;;-7.48;66.19;97078.31;6270691;28;20056;-74
2023/12/01 03:25:44;;;;;;;;;;;;;;;-7.41;65.08;97074.97;6269086;28;20053;-74
2023/12/01 03:28:48;;;;;;;5.20;3.05;;;;;;;-7.73;65.34;97072.09;6270843;28;20397;-74
2023/12/01 03:31:50;;;;;;;4.80;2.75;;;;;;;-7.84;65.86;97083.91;6268616;28;20399;-75
2023/12/01 03:34:51;;;;;;;3.80;2.90;;;;;;;-7.94;66.55;97070.19;6270185;28;20053;-75
2023/12/01 03:37:57;;;;;;;;;;;;;;;-7.94;66.31;97070.19;6271059;28;20533;-74
2023/12/01 03:41:05;;;;;;;3.33;2.42;;;;;;;-8.04;66.68;97070.94;6269876;28;19925;-74
2023/12/01 03:44:13;;;;;;;4.97;2.80;;;;;;;-7.96;66.89;97069.31;6270679;28;20044;-74
2023/12/01 03:47:14;;;;;;;4.28;2.53;;;;;;;-7.82;66.07;97072.88;6270247;28;20132;-75
2023/12/01 03:50:24;;;;;;;6.10;3.08;;;;;;;-7.91;66.61;97054.91;6270546;28;20508;-75
2023/12/01 03:53:26;;;;;;;5.68;3.58;;;;;;;-7.70;66.24;97093.47;6249097;28;20058;-75
2023/12/01 03:56:27;;;;;;;5.90;3.22;;;;;;;-7.75;65.98;97074.66;6243937;28;20079;-76
2023/12/01 03:59:34;;;;;;;3.47;2.72;;;;;;;-7.73;66.47;97067.88;6245572;28;20042;-75
2023/12/01 04:02:42;;;;;;;4.25;2.85;;;;;;;-7.74;66.60;97065.28;6244970;28;20428;-75
2023/12/01 04:05:50;;;;;;;3.38;2.58;;;;;;;-7.61;66.02;97066.25;6244988;28;20045;-75
2023/12/01 04:08:53;;;;;;;4.28;3.40;;;;;;;-7.58;66.87;97059.50;6244513;28;20049;-75
2023/12/01 04:11:56;;;;;;;3.85;3.00;;;;;;;-7.53;66.90;97050.19;6244701;28;20428;-74
2023/12/01 04:15:02;;;;;;;3.72;2.72;;;;;;;-7.42;66.43;97046.84;6244432;28;20068;-75
2023/12/01 04:18:14;;;;;;;3.58;2.53;;;;;;;-7.35;66.84;97051.16;6244957;28;20045;-75
2023/12/01 04:21:18;;;;;;;3.03;2.42;;;;;;;-7.27;66.50;97036.75;6245055;28;20052;-74
2023/12/01 04:24:20;;;;;;;2.58;2.33;;;;;;;-7.12;66.11;97048.78;6244757;28;20556;-76
2023/12/01 04:27:21;;;;;;;11.60;7.30;;;;;;;-6.99;65.84;97053.16;6244592;28;20052;-75
2023/12/01 04:30:29;;;;;;;3.28;2.78;;;;;;;-6.89;65.80;97052.34;6243899;28;20430;-75
2023/12/01 04:33:37;;;;;;;5.07;3.47;;;;;;;-6.79;65.84;97043.88;6245241;28;20557;-76
2023/12/01 04:36:40;;;;;;;3.85;3.35;;;;;;;-6.73;65.27;97049.91;6244534;28;20056;-75
2023/12/01 04:39:46;;;;;;;6.47;3.08;;;;;;;-6.69;65.43;97049.06;6227355;28;20049;-75
2023/12/01 04:42:53;;;;;;;4.90;3.20;;;;;;;-6.55;64.92;97037.19;6243690;28;20132;-75
2023/12/01 04:45:55;;;;;;;5.45;3.20;;;;;;;-6.44;64.88;97048.31;6244431;28;20135;-76
2023/12/01 04:48:57;;;;;;;5.88;3.80;;;;;;;-6.35;65.34;97043.22;6243925;28;20423;-77
2023/12/01 04:52:04;;;;;;;68.47;27.45;;;;;;;-6.23;65.26;97041.56;6244569;28;20053;-76
2023/12/01 04:55:07;;;;;;;10.55;5.30;;;;;;;-6.02;65.36;97051.91;6243561;28;20057;-77
2023/12/01 04:58:16;;;;;;;6.70;4.97;;;;;;;-5.88;64.72;97042.50;6244239;28;20041;-75
2023/12/01 05:01:21;;;;;;;9.38;5.07;;;;;;;-5.78;64.15;97035.69;6244229;28;20538;-76
2023/12/01 05:04:26;;;;;;;6.75;4.93;;;;;;;-5.63;63.82;97045.13;6226926;28;20629;-75
2023/12/01 05:07:31;;;;;;;5.60;3.72;;;;;;;-5.39;63.21;97043.44;6226372;28;20140;-75
2023/12/01 05:10:44;;;;;;;5.38;3.80;;;;;;;-5.25;63.10;97052.84;6249416;28;20049;-76
2023/12/01 05:13:48;;;;;;;4.20;2.95;;;;;;;-5.16;62.71;97051.13;6249562;28;20049;-74
2023/12/01 05:16:49;;;;;;;8.13;3.80;;;;;;;-5.15;61.50;97038.31;6248292;28;20072;-76
2023/12/01 05:19:53;;;;;;;7.03;4.10;;;;;;;-5.11;61.55;97057.97;6249297;28;20486;-76
2023/12/01 05:22:59;;;;;;;5.55;3.55;;;;;;;-5.02;61.52;97045.13;6248593;28;20057;-75
2023/12/01 05:26:00;;;;;;;9.32;5.13;;;;;;;-4.86;61.44;97060.53;6248854;28;20044;-74
2023/12/01 05:29:12;;;;;;;9.60;4.85;;;;;;;-4.66;61.08;97047.66;6231549;28;20053;-75
2023/12/01 05:32:18;;;;;;;7.47;3.90;;;;;;;-4.39;60.61;97059.53;6248875;28;20045;-75
2023/12/01 05:35:25;;;;;;;6.32;3.80;;;;;;;-4.26;60.43;97058.66;6249006;28;20049;-76
2023/12/01 05:38:29;;;;;;;5.53;3.70;;;;;;;-4.04;59.03;97061.16;6248760;28;20041;-75
2023/12/01 05:41:37;;;;;;;5.93;3.97;;;;;;;-4.06;58.05;97046.56;6248798;28;20048;-76
2023/12/01 05:44:41;;;;;;;6.65;4.57;;;;;;;-4.06;58.55;97054.28;6248527;28;20049;-76
2023/12/01 05:47:47;;;;;;;5.78;3.33;;;;;;;-4.00;58.02;97045.69;6247539;28;20418;-74
2023/12/01 05:50:53;;;;;;;4.30;3.42;;;;;;;-3.95;58.70;97038.81;6231088;28;20264;-75
2023/12/01 05:53:57;;;;;;;3.75;2.30;;;;;;;-3.73;58.55;97039.56;6248145;28;20057;-75
2023/12/01 05:57:05;;;;;;;4.82;3.22;;;;;;;-3.64;58.90;97043.78;6248397;28;20045;-75
2023/12/01 06:00:12;;;;;;;6.55;3.03;;;;;;;-3.61;58.72;97057.47;6248304;28;20037;-76
2023/12/01 06:03:19;;;;;;;3.30;2.70;;;;;;;-3.54;57.94;97054.84;6248351;28;20139;-76
2023/12/01 06:06:27;;;;;;;2.88;2.08;;;;;;;-3.64;58.68;97047.22;6248154;28;20037;-76
2023/12/01 06:09:31;;;;;;;3.78;2.90;;;;;;;-3.64;58.67;97054.91;6246989;28;20657;-76
2023/12/01 06:12:37;;;;;;;4.85;2.90;;;;;;;-3.57;58.47;97055.72;6248109;28;20422;-77
2023/12/01 06:15:42;;;;;;;4.32;3.03;;;;;;;-3.52;59.04;97055.72;6246875;28;20219;-77
2023/12/01 06:18:52;;;;;;;3.75;2.55;;;;;;;-3.48;59.07;97055.69;6247967;28;20037;-75
2023/12/01 06:22:00;;;;;;;2.80;2.33;;;;;;;-3.34;59.39;97047.88;6247099;28;20045;-76
2023/12/01 06:25:02;;;;;;;3.30;2.90;;;;;;;-3.18;59.22;97054.59;6247178;28;20057;-77
2023/12/01 06:28:08;;;;;;;3.83;2.97;;;;;;;-3.12;58.54;97052.84;6247310;28;20049;-75
2023/12/01 06:31:10;;;;;;;4.75;2.63;;;;;;;-3.09;59.23;97033.06;6246932;28;20053;-77
2023/12/01 06:34:16;;;;;;;3.30;2.38;;;;;;;-3.07;59.27;97045.94;6245886;28;20087;-76
2023/12/01 06:37:25;;;;;;;3.95;2.80;;;;;;;-3.02;59.23;97026.16;6247657;28;20509;-76
2023/12/01 06:40:33;;;;;;;3.92;3.00;;;;;;;-2.96;59.44;97033.84;6229745;28;20049;-77
2023/12/01 06:43:37;;;;;;;4.32;3.13;;;;;;;-2.81;59.56;97028.53;6246967;28;20041;-77
2023/12/01 06:46:44;;;;;;;3.78;2.92;;;;;;;-2.62;59.61;97023.19;6247223;28;20506;-76
2023/12/01 06:49:49;;;;;;;7.93;5.55;;;;;;;-2.55;59.90;97025.72;6247313;28;20400;-76
2023/12/01 06:53:00;;;;;;;5.05;3.13;;;;;;;-2.34;59.73;97019.44;6252850;28;20078;-74
2023/12/01 06:56:04;;;;;;;4.78;3.45;;;;;;;-2.19;59.08;97010.66;6271787;28;20463;-76
2023/12/01 06:59:09;;;;;;;4.95;2.88;;;;;;;-2.08;58.52;97013.13;6271690;28;20059;-77
2023/12/01 07:02:17;;;;;;;3.70;2.85;;;;;;;-2.03;58.28;97025.09;6271653;28;20041;-76
2023/12/01 07:05:26;;;;;;;4.50;3.13;;;;;;;-2.16;58.21;97017.53;6271686;28;20464;-75
2023/12/01 07:08:30;;;;;;;4.38;2.67;;;;;;;-2.21;56.59;97011.56;6271266;28;20041;-77
2023/12/01 07:11:32;;;;;;;5.47;3.05;;;;;;;-2.45;56.52;97015.28;6270506;28;20426;-77
2023/12/01 07:14:36;;;;;;;4.55;2.67;;;;;;;-2.52;56.90;97022.22;6270313;28;20184;-77
2023/12/01 07:17:43;;;;;;;3.30;2.58;;;;;;;-2.60;57.00;97024.06;6271535;28;20082;-75
2023/12/01 07:20:47;;;;;;;4.25;2.80;;;;;;;-2.88;56.94;96985.69;6271314;28;20162;-77
2023/12/01 07:23:49;;;;;;;3.90;2.70;;;;;;;-2.66;57.21;97021.50;6270732;28;20049;-75
2023/12/01 07:26:53;;;;;;;5.25;2.70;;;;;;;-2.77;57.00;97014.78;6271218;28;20044;-76
2023/12/01 07:29:55;;;;;;;3.65;2.50;;;;;;;-2.79;57.56;97005.34;6268331;28;20052;-76
2023/12/01 07:33:00;;;;;;;2.42;2.22;;;;;;;-2.81;57.90;97007.91;6269469;28;20049;-76
2023/12/01 07:36:05;;;;;;;2.58;2.20;;;;;;;-2.77;57.95;97003.63;6270055;28;20063;-76
2023/12/01 07:39:07;;;;;;;4.95;2.40;;;;;;;-2.75;57.61;97002.72;6270165;28;20059;-77
2023/12/01 07:42:08;;;;;;;5.65;3.45;;;;;;;-2.88;57.46;96990.84;6270618;28;20036;-77
2023/12/01 07:45:18;;;;;;;4.70;2.72;;;;;;;-2.79;57.46;97002.78;6270300;28;20083;-77
2023/12/01 07:48:21;;;;;;;3.65;2.70;;;;;;;-2.85;57.16;97011.41;6269989;28;20103;-77
2023/12/01 07:51:22;;;;;;;5.88;2.92;;;;;;;-2.81;56.52;97007.91;6266668;28;20431;-77
2023/12/01 07:54:28;;;;;;;2.45;1.90;;;;;;;-3.01;57.35;96999.53;6245026;28;20057;-78
2023/12/01 07:57:32;;;;;;;2.90;2.60;;;;;;;-3.12;57.32;97006.50;6245242;28;20041;-77
2023/12/01 08:00:40;;;;;;;5.50;3.20;;;;;;;-3.04;57.98;97003.00;6245338;28;20045;-77
2023/12/01 08:03:49;;;;;;;4.50;2.83;;;;;;;-2.96;58.12;97008.09;6246113;28;20049;-77
2023/12/01 08:06:55;;;;;;;3.47;2.28;;;;;;;-2.96;58.07;97008.09;6245369;28;20064;-76
2023/12/01 08:10:05;;;;;;;3.63;2.58;;;;;;;-2.89;58.00;96999.41;6245452;28;20176;-77
2023/12/01 08:13:10;;;;;;;2.90;2.13;;;;;;;-3.01;58.83;97009.84;6245397;28;20045;-77
2023/12/01 08:16:13;;;;;;;4.10;2.70;;;;;;;-2.93;58.30;97010.63;6243926;28;20578;-77
2023/12/01 08:19:18;;;;;;;3.83;2.85;;;;;;;-2.87;58.53;97007.13;6245052;28;20444;-77
2023/12/01 08:22:22;;;;;;;4.53;3.38;;;;;;;-3.04;60.12;96999.56;6244983;28;20124;-76
2023/12/01 08:25:24;;;;;;;4.28;3.28;;;;;;;-2.90;60.29;97002.88;6244234;28;20145;-77
2023/12/01 08:28:25;;;;;;;3.05;2.65;;;;;;;-2.76;59.71;96997.59;6244225;28;20462;-75
2023/12/01 08:31:32;;;;;;;4.03;2.88;;;;;;;-2.78;60.96;96992.44;6244820;28;20053;-77
2023/12/01 08:34:38;;;;;;;4.55;3.10;;;;;;;-2.69;60.72;96977.75;6227608;28;20041;-77
2023/12/01 08:37:45;;;;;;;4.78;3.20;;;;;;;-2.62;61.21;96967.38;6244827;28;20050;-77
2023/12/01 08:40:52;;;;;;;9.38;5.63;;;;;;;-2.41;61.77;96976.56;6243842;28;20045;-77
2023/12/01 08:43:53;;;;;;;9.35;5.00;;;;;;;-2.31;61.79;96982.47;6242459;28;20160;-76
2023/12/01 08:46:55;;;;;;;5.97;3.70;;;;;;;-2.27;61.50;96984.97;6243433;28;20060;-77
2023/12/01 08:49:59;;;;;;;7.70;4.90;;;;;;;-2.26;62.37;96963.50;6244567;28;20041;-76
2023/12/01 08:53:00;;;;;;;8.07;3.90;;;;;;;-2.18;62.36;96968.56;6243803;28;20045;-76
2023/12/01 08:56:07;;;;;;;5.72;3.78;;;;;;;-2.11;62.61;96966.75;6244446;28;20507;-75
2023/12/01 08:59:09;;;;;;;8.00;3.75;;;;;;;-1.99;63.18;96971.75;6226218;28;20247;-77
2023/12/01 09:02:10;;;;;;;6.53;3.92;;;;;;;-1.93;63.14;96966.50;6225873;28;20060;-77
2023/12/01 09:05:17;;;;;;;;;;;;;;;-1.82;63.77;96971.50;6244704;28;20437;-76
2023/12/01 09:08:21;;;;;;;4.97;3.50;;;;;;;-1.83;63.15;96960.34;6244177;28;19921;-76
2023/12/01 09:11:29;;;;;;;5.25;3.65;;;;;;;-1.65;64.11;96954.03;6226059;28;20071;-77
2023/12/01 09:14:36;;;;;;;5.75;3.88;;;;;;;-1.45;63.66;96951.16;6244167;28;20041;-77
2023/12/01 09:17:43;;;;;;;6.95;4.28;;;;;;;-1.34;63.75;96942.38;6244109;28;20053;-76
2023/12/01 09:20:49;;;;;;;6.55;4.05;;;;;;;-1.31;64.01;96932.00;6243200;28;20136;-77
2023/12/01 09:23:51;;;;;;;6.22;3.67;;;;;;;-1.26;63.60;96936.22;6243272;28;20064;-76
2023/12/01 09:26:53;;;;;;;6.00;3.63;;;;;;;-1.17;63.35;96927.44;6243930;28;20041;-78
2023/12/01 09:29:57;;;;;;;8.70;4.55;;;;;;;-0.74;63.75;96939.56;6244128;28;20491;-77
2023/12/01 09:33:06;;;;;;;6.15;4.60;;;;;;;-0.16;62.61;96943.56;6244050;28;20041;-78
2023/12/01 09:36:08;;;;;;;9.73;6.28;;;;;;;0.31;61.28;96939.09;6242747;28;20522;-77
2023/12/01 09:39:12;;;;;;;6.85;5.10;;;;;;;1.02;60.41;96942.50;6243895;28;20410;-76
2023/12/01 09:42:23;;;;;;;7.90;5.40;;;;;;;1.75;59.08;96945.69;6243817;28;20038;-74
2023/12/01 09:45:26;;;;;;;6.68;4.05;;;;;;;2.68;57.33;96939.38;6242948;28;20057;-73
2023/12/01 09:48:35;;;;;;;6.10;4.72;;;;;;;3.31;56.13;96944.22;6243751;28;20437;-72
2023/12/01 09:51:39;;;;;;;13.90;6.55;;;;;;;3.56;54.77;96942.44;6243838;28;20097;-72
2023/12/01 09:54:44;;;;;;;15.38;7.07;;;;;;;3.44;54.80;96942.88;6243745;28;20053;-71
2023/12/01 09:57:49;;;;;;;24.27;12.27;;;;;;;3.47;54.52;96926.34;6247187;28;20072;-71
2023/12/01 10:00:50;;;;;;;28.77;11.82;;;;;;;2.92;55.32;96940.34;6248116;28;20503;-71
2023/12/01 10:03:58;;;;;;;25.02;12.90;;;;;;;1.78;56.83;96939.56;6248102;28;20406;-72
2023/12/01 10:07:04;;;;;;;39.33;17.25;;;;;;;0.62;59.30;96943.50;6247305;28;20103;-72
2023/12/01 10:10:22;;;;;;;31.40;15.55;;;;;;;0.05;60.20;96938.81;6247971;28;20517;-71
2023/12/01 10:13:39;;;;;;;30.70;13.57;;;;;;;-0.37;62.19;96941.44;6248142;28;20048;-71
2023/12/01 10:16:45;;;;;;;28.85;13.90;;;;;;;-0.73;62.96;96930.97;6247888;28;20502;-70
2023/12/01 10:19:48;;;;;;;;;;;;;;;-0.38;62.29;96921.63;6247746;28;20481;-71
2023/12/01 10:22:55;;;;;;;27.63;12.88;;;;;;;-0.75;62.89;96914.63;6246913;28;19954;-71
2023/12/01 10:25:57;;;;;;;28.13;13.93;;;;;;;-0.88;64.47;96913.16;6247445;28;20499;-72
2023/12/01 10:29:03;;;;;;;23.92;11.43;;;;;;;-0.99;64.70;96903.00;6247645;28;20045;-72
2023/12/01 10:32:11;;;;;;;19.77;9.73;;;;;;;-1.02;64.84;96905.66;6247516;28;20037;-71
2023/12/01 10:35:17;;;;;;;13.15;6.50;;;;;;;-0.99;65.12;96903.91;6246862;28;20053;-72
2023/12/01 10:38:26;;;;;;;8.98;5.78;;;;;;;-1.06;65.29;96876.47;6247189;28;20053;-71
2023/12/01 10:41:31;;;;;;;11.20;6.35;;;;;;;-1.28;66.40;96888.91;6247229;28;20146;-72
2023/12/01 10:44:39;;;;;;;8.30;5.43;;;;;;;-1.30;66.75;96893.28;6246665;28;20038;-73
2023/12/01 10:47:50;;;;;;;11.00;6.05;;;;;;;-1.38;66.74;96888.22;6229882;28;20507;-72
2023/12/01 10:50:52;;;;;;;8.85;5.78;;;;;;;-1.21;67.20;96892.25;6228923;28;20140;-72
2023/12/01 10:53:55;;;;;;;;;;;;;;;-1.33;67.49;96895.03;6246665;28;20053;-73
2023/12/01 10:57:26;;;;;;;10.50;5.78;;;;;;;-1.56;68.06;96880.78;6246289;28;19921;-74
2023/12/01 11:00:30;;;;;;;6.57;5.43;;;;;;;-1.89;68.44;96877.91;6245203;28;20041;-75
2023/12/01 11:03:32;;;;;;;7.25;4.65;;;;;;;-2.01;69.42;96879.81;6245728;28;20054;-75
2023/12/01 11:07:02;;;;;;;9.55;5.97;;;;;;;-1.90;69.96;96883.06;6245658;28;20049;-75
2023/12/01 11:10:17;;;;;;;7.53;5.15;;;;;;;-1.91;69.76;96887.38;6245561;28;20132;-75
2023/12/01 11:13:48;;;;;;;9.02;4.95;;;;;;;-1.97;70.34;96884.91;6245684;28;20515;-75
2023/12/01 11:16:53;;;;;;;11.13;6.57;;;;;;;-2.09;70.97;96887.69;6246431;28;20049;-76
2023/12/01 11:19:59;;;;;;;11.20;5.82;;;;;;;-2.11;70.77;96886.84;6228735;28;20088;-75
2023/12/01 11:23:10;;;;;;;10.48;6.78;;;;;;;-2.13;71.20;96884.28;6246000;28;20048;-75
2023/12/01 11:26:12;;;;;;;9.68;5.75;;;;;;;-2.18;71.13;96890.38;6246168;28;20044;-76
2023/12/01 11:29:28;;;;;;;8.55;4.72;;;;;;;-2.15;71.53;96886.03;6246271;28;20442;-76
2023/12/01 11:32:39;;;;;;;13.07;6.45;;;;;;;-2.15;71.71;96885.16;6246220;28;20065;-74
2023/12/01 11:36:21;;;;;;;13.25;7.45;;;;;;;-2.15;71.59;96874.84;6245836;28;20041;-75
2023/12/01 11:39:29;;;;;;;14.73;7.55;;;;;;;-2.22;71.87;96870.69;6245561;28;20045;-75
2023/12/01 11:42:34;;;;;;;11.30;5.90;;;;;;;-2.20;72.10;96876.66;6245727;28;20426;-75
2023/12/01 11:45:41;;;;;;;17.17;9.55;;;;;;;-2.02;71.90;96868.66;6245424;28;20525;-74
2023/12/01 11:48:44;;;;;;;16.33;9.05;;;;;;;-2.08;71.85;96877.31;6244608;28;20057;-76
2023/12/01 11:51:49;;;;;;;18.38;8.23;;;;;;;-2.02;72.40;96863.50;6244302;28;20426;-76
2023/12/01 11:54:53;;;;;;;28.65;13.23;;;;;;;-2.22;73.15;96852.63;6245554;28;20041;-76
2023/12/01 11:57:55;;;;;;;21.23;8.73;;;;;;;-2.13;72.79;96849.91;6244146;28;20144;-75
2023/12/01 12:01:00;;;;;;;29.85;13.43;;;;;;;-2.21;73.19;96849.16;6244868;28;20056;-75
2023/12/01 12:04:04;;;;;;;33.03;15.63;;;;;;;-2.08;73.26;96855.84;6227003;28;20510;-76
2023/12/01 12:07:08;;;;;;;36.40;16.27;;;;;;;-2.07;73.37;96862.69;6246704;28;20061;-74
2023/12/01 12:10:13;;;;;;;;;;;;;;;-1.97;73.04;96859.13;6270018;28;20064;-75
2023/12/01 12:13:17;;;;;;;44.20;17.15;;;;;;;-2.12;73.86;96854.22;6251481;28;19943;-75
2023/12/01 12:16:24;;;;;;;29.73;16.75;;;;;;;-2.09;74.13;96846.44;6269890;28;20187;-76
2023/12/01 12:19:40;;;;;;;35.33;15.50;;;;;;;-2.01;74.30;96841.97;6269052;28;20045;-76
2023/12/01 12:22:48;;;;;;;32.47;15.02;;;;;;;-1.99;74.69;96837.66;6269428;28;20048;-75
2023/12/01 12:25:52;;;;;;;40.33;16.63;;;;;;;-1.96;74.77;96824.72;6249687;28;20061;-76
2023/12/01 12:28:59;;;;;;;38.38;17.05;;;;;;;-1.99;74.41;96809.28;6268496;28;20041;-76
2023/12/01 12:32:04;;;;;;;39.70;17.95;;;;;;;-1.74;74.30;96829.53;6269320;28;20049;-76
2023/12/01 12:35:11;;;;;;;37.55;16.33;;;;;;;-1.81;75.03;96832.22;6269037;28;20089;-75
2023/12/01 12:38:19;;;;;;;42.63;17.52;;;;;;;-1.79;75.47;96828.75;6268906;28;20049;-75
2023/12/01 12:41:33;;;;;;;36.25;15.75;;;;;;;-1.72;75.53;96830.34;6269514;28;20410;-75
2023/12/01 12:44:38;;;;;;;33.20;14.00;;;;;;;-1.68;75.74;96832.00;6268554;28;20045;-75
2023/12/01 12:47:45;;;;;;;27.77;13.77;;;;;;;-1.72;75.47;96826.03;6269104;28;20045;-75
2023/12/01 12:50:49;;;;;;;23.95;9.52;;;;;;;-1.75;75.78;96809.78;6268919;28;20513;-76
2023/12/01 12:53:53;;;;;;;35.70;13.88;;;;;;;-1.79;75.77;96814.13;6267903;28;20498;-76
2023/12/01 12:56:55;;;;;;;24.35;12.32;;;;;;;-1.87;76.83;96805.66;6268514;28;20573;-75
2023/12/01 13:00:04;;;;;;;22.85;11.27;;;;;;;-1.75;76.44;96802.03;6268564;28;20452;-76
2023/12/01 13:03:16;;;;;;;25.65;10.40;;;;;;;-1.69;76.22;96799.34;6269084;28;20045;-75
2023/12/01 13:06:18;;;;;;;18.08;9.88;;;;;;;-1.76;75.83;96795.16;6268072;28;20056;-76
2023/12/01 13:09:19;;;;;;;18.27;8.63;;;;;;;-1.76;76.72;96805.47;6268630;28;20061;-75
2023/12/01 13:12:23;;;;;;;;;;;;;;;-1.81;76.46;96814.16;6269417;28;20048;-74
2023/12/01 13:15:28;;;;;;;6.93;3.77;;;;;;;-1.74;76.47;96808.88;6268800;28;19921;-75
2023/12/01 13:18:29;;;;;;;11.60;6.32;;;;;;;-1.79;77.25;96811.53;6267948;28;20053;-76
2023/12/01 13:21:35;;;;;;;10.15;4.85;;;;;;;-1.66;76.93;96802.72;6268346;28;20049;-75
2023/12/01 13:24:42;;;;;;;8.68;5.30;;;;;;;-1.54;76.13;96809.38;6268666;28;20146;-75
2023/12/01 13:27:43;;;;;;;7.03;4.70;;;;;;;-1.70;76.16;96800.19;6268721;28;20048;-76
2023/12/01 13:30:46;;;;;;;9.45;6.00;;;;;;;-1.69;77.08;96796.75;6272690;28;20426;-75
2023/12/01 13:33:55;;;;;;;9.05;4.82;;;;;;;-1.73;77.33;96810.56;6273974;28;20426;-75
2023/12/01 13:36:59;;;;;;;7.95;4.72;;;;;;;-1.81;76.73;96805.56;6273622;28;20495;-75
2023/12/01 13:40:03;;;;;;;8.80;5.47;;;;;;;-1.83;77.63;96810.75;6273324;28;20082;-76
2023/12/01 13:43:11;;;;;;;7.03;4.35;;;;;;;-1.72;77.63;96807.97;6273393;28;20524;-75
2023/12/01 13:46:24;;;;;;;7.65;4.68;;;;;;;-1.62;76.86;96813.81;6273404;28;20055;-75
2023/12/01 13:49:28;;;;;;;10.52;5.80;;;;;;;-1.72;77.29;96797.66;6273207;28;20555;-75
2023/12/01 13:52:33;;;;;;;9.25;5.32;;;;;;;-1.65;77.64;96813.88;6271456;28;20053;-76
2023/12/01 13:55:37;;;;;;;9.93;5.88;;;;;;;-1.66;77.70;96813.03;6273134;28;20041;-75
2023/12/01 13:58:40;;;;;;;7.60;4.43;;;;;;;-1.58;77.20;96815.50;6271586;28;20170;-75
2023/12/01 14:01:48;;;;;;;12.65;7.45;;;;;;;-1.65;76.75;96808.72;6255616;28;20041;-75
2023/12/01 14:04:54;;;;;;;11.48;5.95;;;;;;;-1.47;77.32;96803.25;6272224;28;20049;-76
2023/12/01 14:07:58;;;;;;;10.13;4.78;;;;;;;-1.43;76.95;96810.03;6272810;28;20538;-76
2023/12/01 14:11:02;;;;;;;13.60;7.47;;;;;;;-1.42;76.84;96785.91;6271892;28;20045;-75
2023/12/01 14:14:07;;;;;;;11.60;6.07;;;;;;;-1.60;76.77;96794.00;6254697;28;20619;-75
2023/12/01 14:17:12;;;;;;;13.75;6.93;;;;;;;-1.61;77.52;96789.75;6271535;28;20061;-75
2023/12/01 14:20:14;;;;;;;14.93;7.13;;;;;;;-1.69;77.91;96791.59;6272153;28;20033;-74
2023/12/01 14:23:20;;;;;;;11.18;6.97;;;;;;;-1.59;77.66;96782.81;6272361;28;20127;-75
2023/12/01 14:26:26;;;;;;;16.35;7.90;;;;;;;-1.74;78.14;96788.25;6272587;28;20059;-75
2023/12/01 14:29:35;;;;;;;11.23;5.15;;;;;;;-1.63;78.79;96791.50;6272452;28;20049;-74
2023/12/01 14:32:42;;;;;;;12.80;7.03;;;;;;;-1.58;77.79;96789.69;6272235;28;20032;-75